createdAt,value
2023-04-10T00:01:27.508Z,12.00
2023-04-10T00:04:35.747Z,9.27
2023-04-10T00:07:43.995Z,8.63
2023-04-10T00:10:53.288Z,8.77
2023-04-10T00:14:02.832Z,11.17
2023-04-10T00:17:11.390Z,10.30
2023-04-10T00:20:19.756Z,11.03
2023-04-10T00:23:28.102Z,8.87
2023-04-10T00:26:37.514Z,8.23
2023-04-10T00:29:47.283Z,9.00
2023-04-10T00:32:55.745Z,9.03
2023-04-10T00:36:04.240Z,10.20
2023-04-10T00:39:12.845Z,8.80
2023-04-10T00:42:22.235Z,8.73
2023-04-10T00:45:32.269Z,7.53
2023-04-10T00:48:40.886Z,8.90
2023-04-10T00:51:49.698Z,9.70
2023-04-10T00:54:58.604Z,8.90
2023-04-10T00:58:07.975Z,10.87
2023-04-10T01:01:17.892Z,8.27
2023-04-10T01:04:28.757Z,7.87
2023-04-10T01:07:55.114Z,8.20
2023-04-10T01:11:11.384Z,9.80
2023-04-10T01:14:31.867Z,7.87
2023-04-10T01:17:51.831Z,7.83
2023-04-10T01:21:03.998Z,7.47
2023-04-10T01:24:33.993Z,10.20
2023-04-10T01:28:01.337Z,6.77
2023-04-10T01:31:22.240Z,7.77
2023-04-10T01:34:39.997Z,8.17
2023-04-10T01:37:54.462Z,9.40
2023-04-10T01:41:04.204Z,7.70
2023-04-10T01:44:16.854Z,6.87
2023-04-10T01:47:29.080Z,9.97
2023-04-10T01:50:39.341Z,8.67
2023-04-10T01:53:49.090Z,8.17
2023-04-10T01:57:06.430Z,8.23
2023-04-10T02:00:22.853Z,9.67
2023-04-10T02:03:32.923Z,7.23
2023-04-10T02:06:52.718Z,6.73
2023-04-10T02:10:12.237Z,7.23
2023-04-10T02:13:23.594Z,5.60
2023-04-10T02:16:34.916Z,5.97
2023-04-10T02:19:48.269Z,6.93
2023-04-10T02:22:59.570Z,7.97
2023-04-10T02:26:09.012Z,7.93
2023-04-10T02:29:17.639Z,6.00
2023-04-10T02:32:26.421Z,8.93
2023-04-10T02:35:36.319Z,7.93
2023-04-10T02:38:44.969Z,6.93
2023-04-10T02:41:54.616Z,6.37
2023-04-10T02:45:03.249Z,7.17
2023-04-10T02:48:17.691Z,8.87
2023-04-10T02:51:31.100Z,8.13
2023-04-10T02:54:39.493Z,7.40
2023-04-10T02:57:48.529Z,8.00
2023-04-10T03:00:57.877Z,8.43
2023-04-10T03:04:26.409Z,8.90
2023-04-10T03:07:36.084Z,7.63
2023-04-10T03:10:48.485Z,8.20
2023-04-10T03:13:58.285Z,9.13
2023-04-10T03:17:07.436Z,7.63
2023-04-10T03:20:17.314Z,7.70
2023-04-10T03:23:26.927Z,8.87
2023-04-10T03:26:35.060Z,7.50
2023-04-10T03:29:43.980Z,8.93
2023-04-10T03:32:53.152Z,7.23
2023-04-10T03:36:01.607Z,8.33
2023-04-10T03:39:11.270Z,8.90
2023-04-10T03:42:19.413Z,7.50
2023-04-10T03:45:28.038Z,6.63
2023-04-10T03:48:36.429Z,6.83
2023-04-10T03:51:44.659Z,10.13
2023-04-10T03:54:54.119Z,9.03
2023-04-10T03:58:08.379Z,10.27
2023-04-10T04:01:18.118Z,10.97
2023-04-10T04:04:39.412Z,9.47
2023-04-10T04:08:07.146Z,8.00
2023-04-10T04:11:38.536Z,10.20
2023-04-10T04:15:04.227Z,10.77
2023-04-10T04:18:38.385Z,8.27
2023-04-10T04:22:16.957Z,9.03
2023-04-10T04:25:52.822Z,8.10
2023-04-10T04:29:31.098Z,6.57
2023-04-10T04:33:05.785Z,9.63
2023-04-10T04:36:24.129Z,7.97
2023-04-10T04:39:54.941Z,10.40
2023-04-10T04:43:06.014Z,11.20
2023-04-10T04:46:34.581Z,9.97
2023-04-10T04:50:01.207Z,10.57
2023-04-10T04:53:44.670Z,10.10
2023-04-10T04:57:11.426Z,10.13
2023-04-10T05:00:37.189Z,10.47
2023-04-10T05:03:55.296Z,9.17
2023-04-10T05:07:16.634Z,8.03
2023-04-10T05:10:46.946Z,11.73
2023-04-10T05:14:13.959Z,7.47
2023-04-10T05:17:33.787Z,8.63
2023-04-10T05:20:55.986Z,9.57
2023-04-10T05:24:19.014Z,8.67
2023-04-10T05:27:46.329Z,12.77
2023-04-10T05:31:17.689Z,15.47
2023-04-10T05:34:37.363Z,12.97
2023-04-10T05:38:05.825Z,10.80
2023-04-10T05:41:24.933Z,13.37
2023-04-10T05:44:46.437Z,14.90
2023-04-10T05:48:17.315Z,16.43
2023-04-10T05:51:43.471Z,12.73
2023-04-10T05:55:15.088Z,13.03
2023-04-10T05:58:37.057Z,15.33
2023-04-10T06:02:04.214Z,11.37
2023-04-10T06:05:12.487Z,11.63
2023-04-10T06:08:22.888Z,14.17
2023-04-10T06:11:32.674Z,16.83
2023-04-10T06:14:41.269Z,13.20
2023-04-10T06:17:51.152Z,11.60
2023-04-10T06:21:01.856Z,9.73
2023-04-10T06:24:11.671Z,10.87
2023-04-10T06:27:22.770Z,6.47
2023-04-10T06:30:34.143Z,6.50
2023-04-10T06:33:43.167Z,5.63
2023-04-10T06:36:52.303Z,5.67
2023-04-10T06:40:06.944Z,5.40
2023-04-10T06:43:16.781Z,6.37
2023-04-10T06:46:25.253Z,5.97
2023-04-10T06:49:33.423Z,6.17
2023-04-10T06:52:42.696Z,5.37
2023-04-10T06:55:51.071Z,5.47
2023-04-10T06:59:00.627Z,4.83
2023-04-10T07:02:09.790Z,5.57
2023-04-10T07:05:19.060Z,5.47
2023-04-10T07:08:27.205Z,3.80
2023-04-10T07:11:35.570Z,5.30
2023-04-10T07:14:46.063Z,6.30
2023-04-10T07:17:54.202Z,4.87
2023-04-10T07:21:02.941Z,5.07
2023-04-10T07:24:11.567Z,4.47
2023-04-10T07:27:20.828Z,5.37
2023-04-10T07:30:31.065Z,5.37
2023-04-10T07:33:39.490Z,4.80
2023-04-10T07:36:48.331Z,4.80
2023-04-10T07:39:56.632Z,4.40
2023-04-10T07:43:04.870Z,3.70
2023-04-10T07:46:14.434Z,3.90
2023-04-10T07:49:22.880Z,4.33
2023-04-10T07:52:31.068Z,3.90
2023-04-10T07:55:40.314Z,4.30
2023-04-10T07:58:49.526Z,4.23
2023-04-10T08:01:59.401Z,5.47
2023-04-10T08:05:08.841Z,3.87
2023-04-10T08:08:17.611Z,3.77
2023-04-10T08:11:28.638Z,4.47
2023-04-10T08:14:36.805Z,4.67
2023-04-10T08:17:47.719Z,4.63
2023-04-10T08:20:57.160Z,5.03
2023-04-10T08:24:06.216Z,6.20
2023-04-10T08:27:16.321Z,7.77
2023-04-10T08:30:24.922Z,8.43
2023-04-10T08:33:34.764Z,5.53
2023-04-10T08:36:43.024Z,4.40
2023-04-10T08:39:51.819Z,5.93
2023-04-10T08:43:03.101Z,5.87
2023-04-10T08:46:12.504Z,4.57
2023-04-10T08:49:32.357Z,5.10
2023-04-10T08:52:47.016Z,4.30
2023-04-10T08:55:55.505Z,5.50
2023-04-10T08:59:04.436Z,4.73
2023-04-10T09:02:12.980Z,5.00
2023-04-10T09:05:23.487Z,4.27
2023-04-10T09:08:32.087Z,4.33
2023-04-10T09:12:04.373Z,5.00
2023-04-10T09:15:13.924Z,5.40
2023-04-10T09:18:22.393Z,4.30
2023-04-10T09:21:31.820Z,3.97
2023-04-10T09:24:42.550Z,4.50
2023-04-10T09:28:02.702Z,3.80
2023-04-10T09:31:30.932Z,5.27
2023-04-10T09:34:56.566Z,3.87
2023-04-10T09:38:17.125Z,4.17
2023-04-10T09:41:25.483Z,3.33
2023-04-10T09:44:37.398Z,3.90
2023-04-10T09:48:01.867Z,4.40
2023-04-10T09:51:29.891Z,4.80
2023-04-10T09:54:39.697Z,4.00
2023-04-10T09:57:48.078Z,4.10
2023-04-10T10:00:56.566Z,4.20
2023-04-10T10:04:07.350Z,4.10
2023-04-10T10:07:17.985Z,2.57
2023-04-10T10:10:27.687Z,3.17
2023-04-10T10:13:42.828Z,4.63
2023-04-10T10:16:56.689Z,3.77
2023-04-10T10:20:11.046Z,4.07
2023-04-10T10:23:20.919Z,3.37
2023-04-10T10:26:34.935Z,3.37
2023-04-10T10:29:48.042Z,4.10
2023-04-10T10:32:57.297Z,3.30
2023-04-10T10:36:06.683Z,2.60
2023-04-10T10:39:30.336Z,3.10
2023-04-10T10:42:51.719Z,3.43
2023-04-10T10:46:05.123Z,3.60
2023-04-10T10:49:13.569Z,3.40
2023-04-10T10:52:47.702Z,6.40
2023-04-10T10:55:55.797Z,3.40
2023-04-10T10:59:05.602Z,3.47
2023-04-10T11:02:19.030Z,3.10
2023-04-10T11:05:52.429Z,3.20
2023-04-10T11:09:00.589Z,2.87
2023-04-10T11:12:08.884Z,2.40
2023-04-10T11:15:25.118Z,2.50
2023-04-10T11:19:14.836Z,2.60
2023-04-10T11:22:23.862Z,2.80
2023-04-10T11:25:49.543Z,3.05
2023-04-10T11:28:58.168Z,1.90
2023-04-10T11:32:07.767Z,2.23
2023-04-10T11:35:20.568Z,2.47
2023-04-10T11:38:28.740Z,2.53
2023-04-10T11:41:39.289Z,2.40
2023-04-10T11:44:48.840Z,2.40
2023-04-10T11:47:58.400Z,2.40
2023-04-10T11:51:14.553Z,2.00
2023-04-10T11:54:25.153Z,2.30
2023-04-10T11:57:36.514Z,3.00
2023-04-10T12:00:44.851Z,2.80
2023-04-10T12:03:54.693Z,2.10
2023-04-10T12:07:03.680Z,1.63
2023-04-10T12:10:11.894Z,2.00
2023-04-10T12:13:26.773Z,2.17
2023-04-10T12:16:35.226Z,1.83
2023-04-10T12:19:45.408Z,3.80
2023-04-10T12:22:56.634Z,1.70
2023-04-10T12:26:12.599Z,2.00
2023-04-10T12:29:20.835Z,1.97
2023-04-10T12:32:29.286Z,2.00
2023-04-10T12:35:42.966Z,2.10
2023-04-10T12:38:51.661Z,2.27
2023-04-10T12:42:22.950Z,2.00
2023-04-10T12:45:46.708Z,2.53
2023-04-10T12:48:58.258Z,1.73
2023-04-10T12:52:07.750Z,1.77
2023-04-10T12:55:18.258Z,2.53
2023-04-10T12:58:28.128Z,1.90
2023-04-10T13:01:38.529Z,1.70
2023-04-10T13:04:46.933Z,1.77
2023-04-10T13:07:56.859Z,1.37
2023-04-10T13:11:05.642Z,1.50
2023-04-10T13:14:17.854Z,1.83
2023-04-10T13:17:26.535Z,2.20
2023-04-10T13:20:36.740Z,1.60
2023-04-10T13:23:47.101Z,1.90
2023-04-10T13:26:57.206Z,1.70
2023-04-10T13:30:06.592Z,1.70
2023-04-10T13:33:15.183Z,1.30
2023-04-10T13:36:23.508Z,1.60
2023-04-10T13:39:33.603Z,1.80
2023-04-10T13:42:42.624Z,2.10
2023-04-10T13:45:51.284Z,3.33
2023-04-10T13:48:59.809Z,2.90
2023-04-10T13:52:08.285Z,2.90
2023-04-10T13:55:18.158Z,2.30
2023-04-10T13:58:30.802Z,1.60
2023-04-10T14:01:39.326Z,2.23
2023-04-10T14:04:47.645Z,1.57
2023-04-10T14:07:57.002Z,2.13
2023-04-10T14:11:07.306Z,1.83
2023-04-10T14:14:15.433Z,2.37
2023-04-10T14:17:24.413Z,2.67
2023-04-10T14:20:32.829Z,2.60
2023-04-10T14:23:42.672Z,2.17
2023-04-10T14:26:54.758Z,1.57
2023-04-10T14:30:03.241Z,1.90
2023-04-10T14:33:11.450Z,1.80
2023-04-10T14:36:20.711Z,1.83
2023-04-10T14:39:28.913Z,1.87
2023-04-10T14:42:38.529Z,2.03
2023-04-10T14:45:46.660Z,1.87
2023-04-10T14:48:55.466Z,1.80
2023-04-10T14:52:04.146Z,2.27
2023-04-10T14:55:12.861Z,2.00
2023-04-10T14:58:22.516Z,4.20
2023-04-10T15:01:32.067Z,2.37
2023-04-10T15:04:40.654Z,2.33
2023-04-10T15:07:49.232Z,2.50
2023-04-10T15:10:57.381Z,2.37
2023-04-10T15:14:07.444Z,2.73
2023-04-10T15:17:15.825Z,1.60
2023-04-10T15:20:23.966Z,1.90
2023-04-10T15:23:32.480Z,2.43
2023-04-10T15:26:46.350Z,2.47
2023-04-10T15:29:56.316Z,2.03
2023-04-10T15:33:04.873Z,1.80
2023-04-10T15:36:13.180Z,1.70
2023-04-10T15:39:21.668Z,2.00
2023-04-10T15:42:30.114Z,2.20
2023-04-10T15:45:39.777Z,2.37
2023-04-10T15:48:48.195Z,3.07
2023-04-10T15:51:56.300Z,2.20
2023-04-10T15:55:04.800Z,2.17
2023-04-10T15:58:13.276Z,1.90
2023-04-10T16:01:23.038Z,2.60
2023-04-10T16:04:31.991Z,2.03
2023-04-10T16:07:42.165Z,2.03
2023-04-10T16:10:50.326Z,2.00
2023-04-10T16:13:58.435Z,2.23
2023-04-10T16:17:08.107Z,2.00
2023-04-10T16:20:16.501Z,2.10
2023-04-10T16:23:24.688Z,2.53
2023-04-10T16:26:33.240Z,1.80
2023-04-10T16:29:41.681Z,2.30
2023-04-10T16:32:53.605Z,2.50
2023-04-10T16:36:04.570Z,1.83
2023-04-10T16:39:12.796Z,2.47
2023-04-10T16:42:20.922Z,5.00
2023-04-10T16:45:29.818Z,2.03
2023-04-10T16:48:39.413Z,2.90
2023-04-10T16:51:47.483Z,2.10
2023-04-10T16:54:55.643Z,3.80
2023-04-10T16:58:04.022Z,2.27
2023-04-10T17:01:16.993Z,2.33
2023-04-10T17:04:26.974Z,2.10
2023-04-10T17:07:35.605Z,2.40
2023-04-10T17:10:43.931Z,2.10
2023-04-10T17:13:52.081Z,2.30
2023-04-10T17:17:00.293Z,2.97
2023-04-10T17:20:11.276Z,3.20
2023-04-10T17:23:19.865Z,2.43
2023-04-10T17:26:28.109Z,2.70
2023-04-10T17:29:38.498Z,2.73
2023-04-10T17:32:48.671Z,2.83
2023-04-10T17:35:58.692Z,3.43
2023-04-10T17:39:07.226Z,2.27
2023-04-10T17:42:15.641Z,3.33
2023-04-10T17:45:23.861Z,2.77
2023-04-10T17:48:32.398Z,3.13
2023-04-10T17:51:42.431Z,3.43
2023-04-10T17:54:50.737Z,2.57
2023-04-10T17:57:59.726Z,1.87
2023-04-10T18:01:08.295Z,3.70
2023-04-10T18:04:16.741Z,3.37
2023-04-10T18:07:26.634Z,3.27
2023-04-10T18:10:35.451Z,2.83
2023-04-10T18:13:43.875Z,2.90
2023-04-10T18:16:52.367Z,2.83
2023-04-10T18:20:00.620Z,2.83
2023-04-10T18:23:10.712Z,2.93
2023-04-10T18:26:20.863Z,3.20
2023-04-10T18:29:30.383Z,2.67
2023-04-10T18:32:39.554Z,3.00
2023-04-10T18:35:47.923Z,3.03
2023-04-10T18:38:58.071Z,2.87
2023-04-10T18:42:10.549Z,3.60
2023-04-10T18:45:19.766Z,3.03
2023-04-10T18:48:27.875Z,3.17
2023-04-10T18:51:36.666Z,3.03
2023-04-10T18:54:47.590Z,3.17
2023-04-10T18:57:56.229Z,3.77
2023-04-10T19:01:04.799Z,3.30
2023-04-10T19:04:13.256Z,3.00
2023-04-10T19:07:21.571Z,3.00
2023-04-10T19:10:31.313Z,3.70
2023-04-10T19:13:39.954Z,4.73
2023-04-10T19:16:48.152Z,4.07
2023-04-10T19:19:58.002Z,3.27
2023-04-10T19:23:07.190Z,3.30
2023-04-10T19:26:19.625Z,3.10
2023-04-10T19:29:28.001Z,3.37
2023-04-10T19:32:36.591Z,3.97
2023-04-10T19:35:45.188Z,4.17
2023-04-10T19:38:53.497Z,3.43
2023-04-10T19:42:03.314Z,3.03
2023-04-10T19:45:13.377Z,2.87
2023-04-10T19:48:21.880Z,4.23
2023-04-10T19:51:30.254Z,3.63
2023-04-10T19:54:38.508Z,3.27
2023-04-10T19:57:49.237Z,3.40
2023-04-10T20:01:03.031Z,3.30
2023-04-10T20:04:11.820Z,3.30
2023-04-10T20:07:20.681Z,3.53
2023-04-10T20:10:28.993Z,6.83
2023-04-10T20:13:39.249Z,3.77
2023-04-10T20:16:48.205Z,4.07
2023-04-10T20:19:56.970Z,3.23
2023-04-10T20:23:05.690Z,4.10
2023-04-10T20:26:15.937Z,3.17
2023-04-10T20:29:25.805Z,5.63
2023-04-10T20:32:34.447Z,5.30
2023-04-10T20:35:44.303Z,6.53
2023-04-10T20:38:53.302Z,3.97
2023-04-10T20:42:02.129Z,4.07
2023-04-10T20:45:13.664Z,7.47
2023-04-10T20:48:22.576Z,7.13
2023-04-10T20:51:31.512Z,7.93
2023-04-10T20:54:39.971Z,3.40
2023-04-10T20:57:48.421Z,3.17
2023-04-10T21:00:58.553Z,3.50
2023-04-10T21:04:07.742Z,3.47
2023-04-10T21:07:16.546Z,4.47
2023-04-10T21:10:25.134Z,3.37
2023-04-10T21:13:33.432Z,3.97
2023-04-10T21:16:44.818Z,5.13
2023-04-10T21:19:53.304Z,4.73
2023-04-10T21:23:02.486Z,4.10
2023-04-10T21:26:11.429Z,4.87
2023-04-10T21:29:19.995Z,4.40
2023-04-10T21:32:30.053Z,3.67
2023-04-10T21:35:38.523Z,3.77
2023-04-10T21:38:46.762Z,3.23
2023-04-10T21:41:55.856Z,3.97
2023-04-10T21:45:04.783Z,3.70
2023-04-10T21:48:14.595Z,4.00
2023-04-10T21:51:25.096Z,4.40
2023-04-10T21:54:34.564Z,3.27
2023-04-10T21:57:42.762Z,4.27
2023-04-10T22:00:51.794Z,3.47
2023-04-10T22:04:01.846Z,4.00
2023-04-10T22:07:10.368Z,4.37
2023-04-10T22:10:18.811Z,4.57
2023-04-10T22:13:30.716Z,3.67
2023-04-10T22:16:39.714Z,3.63
2023-04-10T22:19:49.376Z,3.90
2023-04-10T22:22:58.930Z,4.00
2023-04-10T22:26:07.939Z,2.97
2023-04-10T22:29:19.372Z,2.57
2023-04-10T22:32:27.873Z,3.17
2023-04-10T22:35:37.628Z,3.00
2023-04-10T22:38:45.939Z,2.70
2023-04-10T22:41:54.326Z,2.87
2023-04-10T22:45:03.232Z,3.77
2023-04-10T22:48:11.883Z,2.10
2023-04-10T22:51:22.644Z,3.00
2023-04-10T22:54:31.679Z,3.00
2023-04-10T22:57:40.046Z,3.43
2023-04-10T23:00:48.474Z,3.90
2023-04-10T23:03:56.646Z,3.30
2023-04-10T23:07:06.595Z,2.27
2023-04-10T23:10:14.721Z,2.33
2023-04-10T23:13:23.457Z,2.00
2023-04-10T23:16:31.902Z,2.17
2023-04-10T23:19:40.438Z,2.53
2023-04-10T23:22:50.499Z,2.10
2023-04-10T23:25:59.189Z,2.20
2023-04-10T23:29:07.304Z,1.57
2023-04-10T23:32:15.962Z,1.77
2023-04-10T23:35:24.674Z,1.73
2023-04-10T23:38:34.178Z,2.97
2023-04-10T23:41:42.345Z,1.50
2023-04-10T23:44:50.634Z,1.77
2023-04-10T23:47:58.972Z,1.63
2023-04-10T23:51:09.160Z,1.37
2023-04-10T23:54:19.198Z,1.30
2023-04-10T23:57:27.493Z,2.67
